Latest Weather Observations for Kempsey Airport

IDN60801

Issued at 8:04 am EST Saturday 7 May 2016 (issued every 30 minutes, with the page automatically refreshed every 10 minutes)

About weather observations | Map of weather stations | Latest weather observations for NSW | Other Formats
Station Details ID: 059007 Name: KEMPSEY AIRPORT AWS Lat: -31.07 Lon: 152.77 Height: 13.0 m
Data from the previous 72 hours. | See also: Recent months at Kempsey Airport
Date/Time
EST
Temp
°C
App
Temp
°C
Dew
Point
Rel
Hum
%
Delta-T
°C
Wind Press
QNH
hPa
Press
MSL
hPa
Rain
since 9 am
mm
Dir
 
Spd
km/h
Gust
km/h
Spd
kts
Gust
kts
07/08:00am 14.2 13.6 12.4 89 1.0 WNW 7 11 4 6 1021.1 1021.1 0.0
07/07:30am 12.9 12.2 12.0 94 0.5 W 7 9 4 5 1020.7 1020.7 0.0
07/07:00am 10.9 9.6 10.0 94 0.5 WSW 7 11 4 6 1020.5 1020.5 0.0
07/06:30am 10.0 8.6 8.9 93 0.5 SW 6 7 3 4 1020.3 1020.3 0.0
07/06:00am 10.7 9.4 9.8 94 0.5 W 7 9 4 5 1020.1 1020.1 0.0
07/05:30am 10.3 8.8 9.1 92 0.6 WSW 7 7 4 4 1019.9 1019.9 0.0
07/05:00am 11.4 10.4 10.3 93 0.6 WSW 6 7 3 4 1019.9 1019.9 0.0
07/04:30am 11.9 11.1 11.0 94 0.5 WNW 6 9 3 5 1019.9 1019.9 0.0
07/04:00am 11.7 10.8 10.8 94 0.5 W 6 7 3 4 1019.7 1019.7 0.0
07/03:30am 11.0 9.7 9.9 93 0.6 W 7 9 4 5 1019.5 1019.5 0.0
07/03:00am 11.1 11.2 10.0 93 0.6 CALM 0 0 0 0 1019.5 1019.5 0.0
07/02:30am 12.0 11.0 11.1 94 0.5 W 7 11 4 6 1019.7 1019.7 0.0
07/02:00am 12.5 11.7 11.6 94 0.5 W 7 11 4 6 1019.6 1019.6 0.0
07/01:30am 11.0 11.0 9.9 93 0.6 CALM 0 0 0 0 1019.8 1019.8 0.0
07/01:00am 11.4 11.6 10.5 94 0.5 CALM 0 0 0 0 1019.8 1019.8 0.0
07/12:30am 11.4 11.5 10.3 93 0.6 CALM 0 0 0 0 1019.8 1019.8 0.0
07/12:00am 11.5 11.7 10.6 94 0.5 CALM 0 0 0 0 1019.7 1019.7 0.0
 
Date/Time
EST
Temp
°C
App
Temp
°C
Dew
Point
Rel
Hum
%
Delta-T
°C
Wind Press
QNH
hPa
Press
MSL
hPa
Rain
since 9 am
mm
Dir
 
Spd
km/h
Gust
km/h
Spd
kts
Gust
kts
06/11:30pm 11.5 11.7 10.4 93 0.6 CALM 0 0 0 0 1020.0 1020.0 0.0
06/11:00pm 11.3 11.4 10.2 93 0.6 CALM 0 0 0 0 1019.8 1019.8 0.0
06/10:30pm 11.3 11.3 9.9 91 0.7 CALM 0 0 0 0 1019.8 1019.8 0.0
06/10:00pm 11.8 12.0 10.7 93 0.6 CALM 0 0 0 0 1019.8 1019.8 0.0
06/09:30pm 11.9 12.1 10.6 92 0.7 CALM 0 0 0 0 1019.9 1019.9 0.0
06/09:00pm 12.7 13.1 11.4 92 0.7 CALM 0 0 0 0 1019.8 1019.8 0.0
06/08:30pm 13.0 13.5 11.6 91 0.7 CALM 0 0 0 0 1019.7 1019.7 0.0
06/08:00pm 14.1 13.8 12.8 92 0.7 W 6 6 3 3 1019.6 1019.6 0.0
06/07:30pm 14.1 13.7 12.3 89 1.0 W 6 9 3 5 1019.4 1019.4 0.0
06/07:00pm 14.9 14.8 13.3 90 0.9 W 6 9 3 5 1019.2 1019.2 0.0
06/06:30pm 15.5 16.4 12.8 84 1.5 CALM 0 0 0 0 1018.9 1018.9 0.0
06/06:00pm 17.0 18.1 13.5 80 2.0 CALM 0 0 0 0 1018.6 1018.6 0.0
06/05:30pm 18.9 19.3 13.7 72 3.0 ESE 4 7 2 4 1018.1 1018.1 0.0
06/05:00pm 20.9 20.6 14.3 66 3.8 ESE 9 11 5 6 1017.7 1017.7 0.0
06/04:30pm 22.9 22.1 15.2 62 4.6 E 13 17 7 9 1017.4 1017.4 0.0
06/04:00pm 23.5 23.1 15.3 60 4.9 E 11 15 6 8 1017.3 1017.3 0.0
06/03:30pm 24.6 23.4 15.0 55 5.7 E 15 20 8 11 1017.0 1017.0 0.0
06/03:00pm 25.8 24.4 14.6 50 6.7 ENE 15 20 8 11 1016.9 1016.9 0.0
06/02:30pm 26.7 24.8 13.1 43 8.0 ENE 15 20 8 11 1017.0 1017.0 0.0
06/02:00pm 26.2 24.5 11.2 39 8.5 ENE 11 17 6 9 1017.1 1017.1 0.0
06/01:30pm 26.5 25.3 12.9 43 7.9 NE 11 19 6 10 1017.3 1017.3 0.0
06/01:00pm 26.0 24.9 12.1 42 8.0 NE 9 17 5 9 1017.5 1017.5 0.0
06/12:30pm 25.4 24.5 12.6 45 7.4 E 9 15 5 8 1017.7 1017.7 0.0
06/12:00pm 24.5 24.3 13.1 49 6.6 NNW 6 9 3 5 1018.4 1018.4 0.0
06/11:30am 23.9 23.8 13.2 51 6.2 SSW 6 11 3 6 1018.9 1018.9 0.0
06/11:00am 23.1 23.5 13.6 55 5.5 W 4 7 2 4 1019.3 1019.3 0.0
06/10:30am 21.6 21.7 12.7 57 5.1 NW 4 9 2 5 1019.7 1019.7 0.0
06/10:00am 20.2 20.1 13.2 64 4.0 W 6 13 3 7 1019.9 1019.9 0.0
06/09:30am 18.2 17.4 12.9 71 3.0 WNW 9 11 5 6 1020.0 1020.0 0.0
06/09:00am 15.9 15.4 12.5 80 1.9 WNW 7 11 4 6 1020.0 1020.0 0.0
06/08:30am 14.7 14.2 12.6 87 1.1 WNW 7 9 4 5 1020.0 1020.0 0.0
06/08:00am 13.0 12.2 11.7 92 0.7 WSW 7 9 4 5 1019.8 1019.8 0.0
06/07:30am 12.3 11.4 11.4 94 0.5 SW 7 9 4 5 1019.5 1019.5 0.0
06/07:00am 9.4 9.1 8.5 94 0.4 CALM 0 0 0 0 1019.2 1019.2 0.0
06/06:30am 7.9 7.2 6.8 93 0.5 CALM 0 0 0 0 1018.8 1018.8 0.0
06/06:00am 8.8 8.3 7.7 93 0.5 CALM 0 0 0 0 1018.4 1018.4 0.0
06/05:30am 8.5 7.9 7.4 93 0.5 CALM 0 0 0 0 1018.2 1018.2 0.0
06/05:00am 9.2 8.8 8.1 93 0.5 CALM 0 0 0 0 1018.1 1018.1 0.0
06/04:30am 9.9 9.6 8.8 93 0.5 CALM 0 0 0 0 1018.1 1018.1 0.0
06/04:00am 10.6 9.2 9.7 94 0.5 W 7 9 4 5 1018.2 1018.2 0.0
06/03:30am 10.4 10.3 9.5 94 0.5 CALM 0 11 0 6 1018.0 1018.0 0.0
06/03:00am 10.1 9.9 9.0 93 0.5 CALM 0 0 0 0 1018.0 1018.0 0.0
06/02:30am 10.7 10.6 9.6 93 0.6 CALM 0 0 0 0 1018.0 1018.0 0.0
06/02:00am 10.9 10.9 9.7 92 0.6 CALM 0 0 0 0 1018.1 1018.1 0.0
06/01:30am 11.4 11.5 10.3 93 0.6 CALM 0 0 0 0 1018.3 1018.3 0.0
06/01:00am 11.7 11.4 10.1 90 0.8 WSW 2 6 1 3 1018.4 1018.4 0.0
06/12:30am 12.6 11.9 11.5 93 0.6 W 6 7 3 4 1018.8 1018.8 0.0
06/12:00am 12.4 11.4 11.1 92 0.7 WSW 7 9 4 5 1018.8 1018.8 0.0
 
Date/Time
EST
Temp
°C
App
Temp
°C
Dew
Point
Rel
Hum
%
Delta-T
°C
Wind Press
QNH
hPa
Press
MSL
hPa
Rain
since 9 am
mm
Dir
 
Spd
km/h
Gust
km/h
Spd
kts
Gust
kts
05/11:30pm 12.6 11.0 11.5 93 0.6 WSW 11 13 6 7 1018.7 1018.7 0.0
05/11:00pm 11.8 11.9 10.2 90 0.8 CALM 0 0 0 0 1019.0 1019.0 0.0
05/10:30pm 13.1 13.7 12.0 93 0.6 CALM 0 0 0 0 1019.0 1019.0 0.0
05/10:00pm 13.1 13.6 11.5 90 0.8 CALM 0 0 0 0 1019.3 1019.3 0.0
05/09:30pm 13.5 14.2 12.2 92 0.7 CALM 0 0 0 0 1019.4 1019.4 0.0
05/09:00pm 13.5 14.2 12.1 91 0.8 CALM 0 0 0 0 1019.4 1019.4 0.0
05/08:30pm 13.6 14.2 11.8 89 1.0 CALM 0 0 0 0 1019.4 1019.4 0.0
05/08:00pm 14.2 14.9 12.2 88 1.1 CALM 0 0 0 0 1019.3 1019.3 0.0
05/07:30pm 14.7 15.4 12.2 85 1.4 CALM 0 0 0 0 1019.1 1019.1 0.0
05/07:00pm 15.6 15.2 13.1 85 1.4 WSW 7 9 4 5 1019.0 1019.0 0.0
05/06:30pm 16.2 16.8 13.1 82 1.7 SSW 2 6 1 3 1018.8 1018.8 0.0
05/06:00pm 17.9 17.9 13.6 76 2.4 ESE 6 7 3 4 1018.4 1018.4 0.0
05/05:30pm 19.8 19.4 14.0 69 3.3 ENE 9 13 5 7 1018.0 1018.0 0.0
05/05:00pm 21.4 20.0 13.3 60 4.6 ENE 13 20 7 11 1017.7 1017.7 0.0
05/04:30pm 22.9 20.2 11.6 49 6.3 ENE 17 22 9 12 1017.6 1017.6 0.0
05/04:00pm 24.0 21.4 10.7 43 7.4 ENE 15 22 8 12 1017.5 1017.5 0.0
05/03:30pm 25.1 21.8 8.1 34 9.1 ENE 15 24 8 13 1017.4 1017.4 0.0
05/03:00pm 25.4 22.2 10.1 38 8.5 E 17 24 9 13 1017.3 1017.3 0.0
05/02:30pm 25.9 22.7 10.1 37 8.8 E 17 22 9 12 1017.2 1017.2 0.0
05/02:00pm 26.1 23.0 10.3 37 8.8 E 17 24 9 13 1017.3 1017.3 0.0
05/01:30pm 25.8 23.6 9.2 35 9.1 ENE 11 17 6 9 1017.5 1017.5 0.0
05/01:00pm 26.3 24.4 9.2 34 9.3 NE 9 19 5 10 1017.7 1017.7 0.0
05/12:30pm 26.0 24.6 9.4 35 9.1 N 7 15 4 8 1018.1 1018.1 0.0
05/12:00pm 25.2 23.7 9.1 36 8.7 N 7 15 4 8 1018.7 1018.7 0.0
05/11:30am 24.3 22.9 9.5 39 8.1 N 7 15 4 8 1019.2 1019.2 0.0
05/11:00am 23.4 22.5 10.5 44 7.1 NW 6 11 3 6 1019.9 1019.9 0.0
05/10:30am 22.5 21.7 11.6 50 6.1 W 7 11 4 6 1020.4 1020.4 0.0
05/10:00am 21.2 19.7 10.7 51 5.7 NNW 9 11 5 6 1020.9 1020.9 0.0
05/09:30am 19.4 18.1 11.4 60 4.4 WNW 9 15 5 8 1021.1 1021.1 0.0
05/09:00am 17.7 16.0 11.3 66 3.5 WNW 11 17 6 9 1021.1 1021.1 0.2
05/08:30am 16.0 14.4 11.6 75 2.4 WNW 11 17 6 9 1021.1 1021.1 0.2
05/08:00am 14.5 14.2 11.3 81 1.7 WNW 4 9 2 5 1020.9 1020.9 0.2
05/07:30am 12.5 11.4 10.6 88 1.0 WSW 7 11 4 6 1020.7 1020.7 0.2
05/07:00am 11.0 9.8 9.4 90 0.8 WSW 6 9 3 5 1020.3 1020.3 0.2
05/06:30am 10.4 9.0 9.0 91 0.7 WSW 6 9 3 5 1019.8 1019.8 0.2
05/06:00am 10.3 9.7 8.9 91 0.7 W 2 7 1 4 1019.5 1019.5 0.2
05/05:30am 10.0 8.4 8.6 91 0.7 WSW 7 9 4 5 1019.1 1019.1 0.2
05/05:00am 10.4 8.9 9.0 91 0.7 WSW 7 11 4 6 1019.0 1019.0 0.2
05/04:30am 10.3 8.7 8.9 91 0.7 WSW 7 9 4 5 1018.9 1018.9 0.2
05/04:00am 10.3 8.7 8.9 91 0.7 WSW 7 9 4 5 1018.7 1018.7 0.2
05/03:30am 10.3 8.7 8.6 89 0.8 WSW 7 9 4 5 1018.5 1018.5 0.2
05/03:00am 11.0 10.4 9.1 88 0.9 W 2 7 1 4 1018.5 1018.5 0.2
05/02:30am 10.8 8.9 9.1 89 0.8 WSW 9 11 5 6 1018.5 1018.5 0.2
05/02:00am 11.1 9.7 9.4 89 0.9 W 7 9 4 5 1018.6 1018.6 0.2
05/01:30am 11.3 9.5 9.4 88 1.0 WSW 9 11 5 6 1018.7 1018.7 0.2
05/01:00am 11.2 9.9 9.3 88 0.9 WSW 6 9 3 5 1018.7 1018.7 0.2
05/12:30am 11.4 9.7 9.7 89 0.9 WSW 9 9 5 5 1019.0 1019.0 0.2
05/12:00am 11.1 11.0 9.5 90 0.8 CALM 0 0 0 0 1018.9 1018.9 0.2
 
Date/Time
EST
Temp
°C
App
Temp
°C
Dew
Point
Rel
Hum
%
Delta-T
°C
Wind Press
QNH
hPa
Press
MSL
hPa
Rain
since 9 am
mm
Dir
 
Spd
km/h
Gust
km/h
Spd
kts
Gust
kts
04/11:30pm 11.3 11.2 9.4 88 1.0 CALM 0 0 0 0 1019.0 1019.0 0.2
04/11:00pm 11.5 10.4 9.8 89 0.9 W 6 9 3 5 1018.9 1018.9 0.2
04/10:30pm 11.6 9.8 9.5 87 1.1 WSW 9 11 5 6 1019.1 1019.1 0.2
04/10:00pm 11.9 10.2 9.8 87 1.1 WSW 9 11 5 6 1019.2 1019.2 0.2
04/09:30pm 12.4 10.9 10.5 88 1.0 WSW 9 11 5 6 1019.2 1019.2 0.2
04/09:00pm 12.1 10.4 9.8 86 1.2 W 9 9 5 5 1019.1 1019.1 0.2
04/08:30pm 11.8 10.3 9.0 83 1.4 W 7 7 4 4 1019.0 1019.0 0.2
04/08:00pm 12.8 12.4 9.8 82 1.5 W 2 7 1 4 1018.8 1018.8 0.2
04/07:30pm 13.0 12.9 9.3 78 1.9 CALM 0 0 0 0 1018.4 1018.4 0.2
04/07:00pm 14.5 13.9 10.3 76 2.2 W 4 7 2 4 1018.0 1018.0 0.2
04/06:30pm 15.1 13.5 10.1 72 2.6 WSW 9 9 5 5 1017.5 1017.5 0.2
04/06:00pm 16.9 16.9 9.8 63 3.7 CALM 0 4 0 2 1016.8 1016.8 0.2
04/05:30pm 19.3 18.2 10.0 55 5.0 NNE 6 7 3 4 1016.1 1016.1 0.2
04/05:00pm 21.4 19.6 9.3 46 6.5 E 9 11 5 6 1015.6 1015.6 0.2
04/04:30pm 23.2 20.0 8.5 39 7.8 E 15 17 8 9 1015.1 1015.1 0.2
04/04:00pm 24.3 21.1 8.3 36 8.5 E 15 20 8 11 1014.8 1014.8 0.0
04/03:30pm 25.0 21.7 9.7 38 8.4 ENE 17 24 9 13 1014.4 1014.4 0.0
04/03:00pm 26.4 23.2 6.9 29 10.3 E 13 19 7 10 1014.1 1014.1 0.0
04/02:30pm 26.8 25.1 8.3 31 10.0 ESE 7 15 4 8 1014.1 1014.1 0.0
04/02:00pm 26.4 24.5 6.9 29 10.3 WSW 6 9 3 5 1014.1 1014.1 0.0
04/01:30pm 26.1 23.2 6.7 29 10.2 SSW 11 19 6 10 1014.3 1014.3 0.0
04/01:00pm 26.0 24.2 5.6 27 10.5 NW 4 13 2 7 1014.6 1014.6 0.0
04/12:30pm 25.8 22.9 6.4 29 10.1 S 11 17 6 9 1015.1 1015.1 0.0
04/12:00pm 25.7 23.1 6.3 29 10.1 SSW 9 20 5 11 1015.4 1015.4 0.0
04/11:30am 25.1 22.9 7.7 33 9.2 SW 9 17 5 9 1015.8 1015.8 0.0
04/11:00am 25.0 22.6 8.5 35 8.9 WNW 11 22 6 12 1016.1 1016.1 0.0
04/10:30am 24.4 22.6 10.7 42 7.6 WNW 11 17 6 9 1016.5 1016.5 0.0
04/10:00am 23.3 20.9 11.4 47 6.7 WNW 15 19 8 10 1016.8 1016.8 0.0
04/09:30am 21.1 19.0 13.5 62 4.4 WNW 17 20 9 11 1016.7 1016.7 0.0
04/09:00am 19.1 18.6 13.7 71 3.1 W 9 17 5 9 1016.9 1016.9 0.2
04/08:30am 16.6 16.3 13.3 81 1.8 WNW 7 11 4 6 1016.8 1016.8 0.2

Other Formats:

Comma delimited format used in spreadsheet applications
http://www.bom.gov.au/fwo/IDN60801/IDN60801.94785.axf

JavaScript Object Notation format (JSON) in row-major order
http://www.bom.gov.au/fwo/IDN60801/IDN60801.94785.json